createdAt,value
2022-09-21T00:01:17.319Z,14.30
2022-09-21T00:03:45.510Z,14.30
2022-09-21T00:06:15.393Z,14.30
2022-09-21T00:08:43.401Z,14.30
2022-09-21T00:11:25.090Z,14.30
2022-09-21T00:14:05.574Z,14.30
2022-09-21T00:16:33.008Z,14.20
2022-09-21T00:19:00.991Z,14.20
2022-09-21T00:21:28.448Z,14.10
2022-09-21T00:23:55.721Z,14.10
2022-09-21T00:26:25.029Z,14.10
2022-09-21T00:28:58.194Z,14.00
2022-09-21T00:31:26.202Z,14.00
2022-09-21T00:33:53.645Z,14.00
2022-09-21T00:36:23.791Z,13.90
2022-09-21T00:38:53.330Z,13.90
2022-09-21T00:41:20.830Z,13.90
2022-09-21T00:44:20.488Z,13.80
2022-09-21T00:46:49.554Z,13.80
2022-09-21T00:49:17.834Z,13.80
2022-09-21T00:51:46.612Z,13.70
2022-09-21T00:54:20.570Z,13.70
2022-09-21T00:56:48.133Z,13.60
2022-09-21T00:59:21.412Z,13.60
2022-09-21T01:01:49.204Z,13.60
2022-09-21T01:04:19.050Z,13.60
2022-09-21T01:06:48.022Z,13.60
2022-09-21T01:09:16.754Z,13.60
2022-09-21T01:12:29.552Z,13.60
2022-09-21T01:15:15.585Z,13.60
2022-09-21T01:18:08.655Z,13.50
2022-09-21T01:21:06.730Z,13.50
2022-09-21T01:23:55.543Z,13.50
2022-09-21T01:26:47.462Z,13.50
2022-09-21T01:29:34.610Z,13.50
2022-09-21T01:32:20.947Z,13.50
2022-09-21T01:34:51.206Z,13.50
2022-09-21T01:37:23.486Z,13.50
2022-09-21T01:39:55.889Z,13.40
2022-09-21T01:42:25.673Z,13.50
2022-09-21T01:44:53.058Z,13.40
2022-09-21T01:47:20.783Z,13.40
2022-09-21T01:49:54.770Z,13.40
2022-09-21T01:52:48.767Z,13.40
2022-09-21T01:55:41.264Z,13.40
2022-09-21T01:58:40.448Z,13.30
2022-09-21T02:01:12.136Z,13.20
2022-09-21T02:03:54.425Z,13.10
2022-09-21T02:06:21.623Z,13.00
2022-09-21T02:08:48.858Z,12.90
2022-09-21T02:11:15.923Z,12.90
2022-09-21T02:13:49.832Z,12.80
2022-09-21T02:16:35.608Z,12.70
2022-09-21T02:19:14.398Z,12.70
2022-09-21T02:21:57.405Z,12.70
2022-09-21T02:24:43.837Z,12.70
2022-09-21T02:27:30.910Z,12.80
2022-09-21T02:30:13.626Z,12.80
2022-09-21T02:33:01.478Z,12.90
2022-09-21T02:35:31.449Z,12.90
2022-09-21T02:38:06.162Z,13.00
2022-09-21T02:40:49.214Z,13.00
2022-09-21T02:43:27.850Z,13.00
2022-09-21T02:46:04.398Z,13.00
2022-09-21T02:48:43.290Z,13.10
2022-09-21T02:51:14.211Z,13.10
2022-09-21T02:53:42.135Z,13.10
2022-09-21T02:56:11.602Z,13.10
2022-09-21T02:58:43.721Z,13.20
2022-09-21T03:01:12.659Z,13.10
2022-09-21T03:03:39.535Z,13.10
2022-09-21T03:06:06.731Z,13.00
2022-09-21T03:08:33.687Z,13.00
2022-09-21T03:11:01.046Z,13.00
2022-09-21T03:13:27.924Z,13.00
2022-09-21T03:16:04.451Z,13.00
2022-09-21T03:18:31.970Z,13.00
2022-09-21T03:20:59.290Z,13.00
2022-09-21T03:23:26.554Z,13.00
2022-09-21T03:25:54.719Z,13.00
2022-09-21T03:28:22.620Z,13.00
2022-09-21T03:30:51.528Z,13.00
2022-09-21T03:33:21.314Z,12.90
2022-09-21T03:35:48.961Z,13.00
2022-09-21T03:38:17.003Z,12.90
2022-09-21T03:40:48.360Z,12.90
2022-09-21T03:43:16.223Z,12.90
2022-09-21T03:45:43.524Z,12.90
2022-09-21T03:48:12.199Z,12.80
2022-09-21T03:50:39.650Z,12.70
2022-09-21T03:53:07.333Z,12.60
2022-09-21T03:55:34.871Z,12.50
2022-09-21T03:58:02.047Z,12.40
2022-09-21T04:00:29.600Z,12.30
2022-09-21T04:02:56.581Z,12.20
2022-09-21T04:05:23.572Z,12.20
2022-09-21T04:07:50.845Z,12.10
2022-09-21T04:10:21.424Z,12.10
2022-09-21T04:12:48.575Z,12.10
2022-09-21T04:15:19.732Z,12.10
2022-09-21T04:17:51.087Z,12.20
2022-09-21T04:20:18.084Z,12.20
2022-09-21T04:22:47.270Z,12.20
2022-09-21T04:25:15.770Z,12.30
2022-09-21T04:27:43.061Z,12.30
2022-09-21T04:30:15.877Z,12.40
2022-09-21T04:32:42.783Z,12.40
2022-09-21T04:35:10.573Z,12.40
2022-09-21T04:37:37.749Z,12.40
2022-09-21T04:40:05.803Z,12.50
2022-09-21T04:42:32.772Z,12.50
2022-09-21T04:45:00.966Z,12.50
2022-09-21T04:47:30.660Z,12.50
2022-09-21T04:49:57.872Z,12.50
2022-09-21T04:52:24.979Z,12.50
2022-09-21T04:54:52.107Z,12.50
2022-09-21T04:57:18.979Z,12.50
2022-09-21T04:59:45.905Z,12.50
2022-09-21T05:02:12.765Z,12.50
2022-09-21T05:04:39.647Z,12.50
2022-09-21T05:07:06.694Z,12.50
2022-09-21T05:09:51.975Z,12.50
2022-09-21T05:12:18.886Z,12.50
2022-09-21T05:14:45.777Z,12.50
2022-09-21T05:17:13.427Z,12.50
2022-09-21T05:19:41.169Z,12.60
2022-09-21T05:22:08.227Z,12.50
2022-09-21T05:24:35.289Z,12.50
2022-09-21T05:27:02.251Z,12.50
2022-09-21T05:29:29.484Z,12.50
2022-09-21T05:32:03.783Z,12.50
2022-09-21T05:34:39.611Z,12.60
2022-09-21T05:37:27.706Z,12.60
2022-09-21T05:39:54.848Z,12.60
2022-09-21T05:42:22.053Z,12.60
2022-09-21T05:44:50.732Z,12.60
2022-09-21T05:47:55.702Z,12.70
2022-09-21T05:50:34.910Z,12.70
2022-09-21T05:53:53.088Z,12.70
2022-09-21T05:56:23.247Z,12.80
2022-09-21T05:58:59.744Z,12.80
2022-09-21T06:02:00.299Z,12.90
2022-09-21T06:04:27.576Z,12.90
2022-09-21T06:06:54.591Z,12.90
2022-09-21T06:09:21.528Z,13.00
2022-09-21T06:11:49.689Z,13.00
2022-09-21T06:14:16.783Z,13.00
2022-09-21T06:16:43.774Z,13.00
2022-09-21T06:19:14.167Z,12.90
2022-09-21T06:21:41.064Z,12.90
2022-09-21T06:24:08.258Z,12.90
2022-09-21T06:26:35.200Z,13.00
2022-09-21T06:29:02.106Z,13.20
2022-09-21T06:31:29.096Z,13.50
2022-09-21T06:33:59.218Z,13.80
2022-09-21T06:36:26.331Z,14.20
2022-09-21T06:38:55.371Z,14.40
2022-09-21T06:41:22.338Z,14.70
2022-09-21T06:43:55.400Z,15.40
2022-09-21T06:46:22.394Z,16.30
2022-09-21T06:48:49.894Z,17.20
2022-09-21T06:51:16.860Z,17.90
2022-09-21T06:53:43.780Z,18.50
2022-09-21T06:56:14.057Z,19.10
2022-09-21T06:58:44.104Z,19.90
2022-09-21T07:01:14.270Z,20.70
2022-09-21T07:03:44.411Z,21.50
2022-09-21T07:06:14.130Z,22.10
2022-09-21T07:11:41.955Z,23.70
2022-09-21T07:14:10.948Z,24.40
2022-09-21T07:16:41.151Z,25.00
2022-09-21T07:19:11.965Z,25.40
2022-09-21T07:21:42.181Z,25.80
2022-09-21T07:24:12.532Z,26.20
2022-09-21T07:26:40.830Z,26.60
2022-09-21T07:29:10.881Z,27.00
2022-09-21T07:31:38.494Z,27.40
2022-09-21T07:34:07.500Z,27.70
2022-09-21T07:36:35.551Z,27.90
2022-09-21T07:39:05.054Z,28.00
2022-09-21T07:41:35.399Z,28.40
2022-09-21T07:44:04.052Z,29.00
2022-09-21T07:46:34.415Z,29.60
2022-09-21T07:49:06.176Z,30.10
2022-09-21T07:51:33.108Z,30.50
2022-09-21T07:54:03.135Z,30.70
2022-09-21T07:56:33.200Z,30.90
2022-09-21T07:59:08.178Z,31.00
2022-09-21T08:01:38.539Z,31.00
2022-09-21T08:04:07.846Z,31.20
2022-09-21T08:06:40.128Z,31.50
2022-09-21T08:09:13.448Z,31.70
2022-09-21T08:11:45.232Z,31.70
2022-09-21T08:14:25.202Z,31.50
2022-09-21T08:16:53.062Z,31.50
2022-09-21T08:19:25.903Z,31.80
2022-09-21T08:21:57.141Z,32.40
2022-09-21T08:24:27.040Z,32.80
2022-09-21T08:26:56.136Z,32.90
2022-09-21T08:29:25.494Z,33.00
2022-09-21T08:31:55.783Z,33.20
2022-09-21T08:34:29.984Z,33.10
2022-09-21T08:37:00.033Z,33.10
2022-09-21T08:39:30.135Z,33.40
2022-09-21T08:42:25.546Z,33.80
2022-09-21T08:45:00.403Z,33.90
2022-09-21T08:47:50.116Z,33.80
2022-09-21T08:50:28.759Z,33.80
2022-09-21T08:53:04.935Z,33.80
2022-09-21T08:55:32.031Z,33.80
2022-09-21T08:58:00.576Z,33.80
2022-09-21T09:00:38.176Z,33.70
2022-09-21T09:03:18.999Z,33.90
2022-09-21T09:06:07.917Z,34.30
2022-09-21T09:09:02.370Z,34.50
2022-09-21T09:11:45.064Z,34.40
2022-09-21T09:14:36.066Z,34.30
2022-09-21T09:17:22.068Z,34.20
2022-09-21T09:19:56.569Z,34.00
2022-09-21T09:22:30.587Z,34.30
2022-09-21T09:25:05.648Z,34.80
2022-09-21T09:27:40.495Z,34.60
2022-09-21T09:30:17.447Z,34.60
2022-09-21T09:32:56.347Z,34.80
2022-09-21T09:35:36.101Z,34.70
2022-09-21T09:38:27.984Z,34.50
2022-09-21T09:41:22.975Z,34.40
2022-09-21T09:44:28.185Z,34.80
2022-09-21T09:47:21.799Z,35.30
2022-09-21T09:50:13.416Z,35.60
2022-09-21T09:52:42.642Z,36.00
2022-09-21T09:55:20.314Z,36.20
2022-09-21T09:57:49.533Z,36.20
2022-09-21T10:00:21.751Z,35.90
2022-09-21T10:02:59.328Z,35.90
2022-09-21T10:05:33.076Z,35.40
2022-09-21T10:08:03.098Z,35.40
2022-09-21T10:10:40.754Z,35.40
2022-09-21T10:13:09.583Z,35.40
2022-09-21T10:15:45.395Z,35.40
2022-09-21T10:18:46.636Z,35.70
2022-09-21T10:21:33.308Z,35.60
2022-09-21T10:24:23.605Z,35.60
2022-09-21T10:26:54.823Z,35.60
2022-09-21T10:29:44.302Z,35.40
2022-09-21T10:32:26.527Z,34.90
2022-09-21T10:35:07.248Z,34.60
2022-09-21T10:37:40.399Z,34.70
2022-09-21T10:40:30.984Z,34.70
2022-09-21T10:43:00.763Z,34.70
2022-09-21T10:45:30.439Z,34.50
2022-09-21T10:48:06.335Z,34.30
2022-09-21T10:50:37.507Z,34.50
2022-09-21T10:53:10.570Z,34.80
2022-09-21T10:56:17.366Z,35.20
2022-09-21T10:59:19.106Z,35.30
2022-09-21T11:01:48.730Z,35.60
2022-09-21T11:04:45.975Z,35.60
2022-09-21T11:07:25.440Z,35.70
2022-09-21T11:10:08.601Z,35.30
2022-09-21T11:13:00.570Z,34.10
2022-09-21T11:16:00.784Z,32.50
2022-09-21T11:18:58.787Z,31.60
2022-09-21T11:21:40.864Z,30.80
2022-09-21T11:24:29.214Z,29.90
2022-09-21T11:27:16.739Z,29.00
2022-09-21T11:29:49.480Z,28.20
2022-09-21T11:32:37.462Z,27.90
2022-09-21T11:35:27.050Z,27.90
2022-09-21T11:38:10.056Z,28.20
2022-09-21T11:41:20.991Z,28.50
2022-09-21T11:44:19.271Z,28.60
2022-09-21T11:47:03.873Z,28.60
2022-09-21T11:50:07.880Z,28.60
2022-09-21T11:53:28.985Z,28.50
2022-09-21T11:56:04.775Z,28.00
2022-09-21T11:59:07.134Z,27.40
2022-09-21T12:01:56.942Z,26.80
2022-09-21T12:04:36.870Z,26.10
2022-09-21T12:07:27.350Z,25.60
2022-09-21T12:10:11.957Z,25.20
2022-09-21T12:13:13.316Z,24.90
2022-09-21T12:15:49.639Z,24.80
2022-09-21T12:18:33.680Z,24.80
2022-09-21T12:21:11.691Z,24.60
2022-09-21T12:23:59.674Z,24.40
2022-09-21T12:26:39.188Z,24.30
2022-09-21T12:29:38.170Z,24.40
2022-09-21T12:32:25.627Z,24.90
2022-09-21T12:34:57.558Z,25.30
2022-09-21T12:37:45.145Z,25.50
2022-09-21T12:40:38.571Z,25.20
2022-09-21T12:43:21.059Z,24.90
2022-09-21T12:46:18.367Z,24.60
2022-09-21T12:48:45.732Z,24.40
2022-09-21T12:51:33.619Z,24.10
2022-09-21T12:54:11.895Z,23.90
2022-09-21T12:56:50.020Z,23.60
2022-09-21T12:59:46.343Z,23.40
2022-09-21T13:02:40.508Z,23.60
2022-09-21T13:05:16.818Z,23.90
2022-09-21T13:08:07.896Z,24.20
2022-09-21T13:11:01.212Z,24.50
2022-09-21T13:13:38.747Z,24.90
2022-09-21T13:16:25.847Z,25.10
2022-09-21T13:19:02.148Z,25.20
2022-09-21T13:21:33.576Z,25.30
2022-09-21T13:24:04.384Z,25.40
2022-09-21T13:27:08.158Z,25.40
2022-09-21T13:29:41.842Z,25.50
2022-09-21T13:32:14.112Z,25.60
2022-09-21T13:34:44.487Z,25.70
2022-09-21T13:37:15.175Z,25.60
2022-09-21T13:39:58.076Z,25.60
2022-09-21T13:42:33.184Z,25.60
2022-09-21T13:45:12.771Z,25.50
2022-09-21T13:47:43.096Z,25.50
2022-09-21T13:50:38.753Z,25.50
2022-09-21T13:53:22.611Z,25.40
2022-09-21T13:56:00.069Z,25.40
2022-09-21T13:58:34.043Z,25.20
2022-09-21T14:01:45.041Z,25.10
2022-09-21T14:04:28.610Z,25.10
2022-09-21T14:06:57.992Z,25.10
2022-09-21T14:09:31.871Z,25.10
2022-09-21T14:12:06.553Z,25.00
2022-09-21T14:14:40.039Z,25.00
2022-09-21T14:17:35.334Z,24.90
2022-09-21T14:20:07.399Z,24.80
2022-09-21T14:22:39.187Z,24.80
2022-09-21T14:25:27.966Z,24.80
2022-09-21T14:28:02.768Z,24.80
2022-09-21T14:30:34.486Z,24.60
2022-09-21T14:33:10.603Z,24.40
2022-09-21T14:35:41.456Z,24.30
2022-09-21T14:38:31.641Z,24.20
2022-09-21T14:41:07.637Z,24.20
2022-09-21T14:43:39.866Z,24.10
2022-09-21T14:46:54.100Z,24.10
2022-09-21T14:49:39.690Z,24.00
2022-09-21T14:52:41.067Z,23.80
2022-09-21T14:55:46.284Z,23.80
2022-09-21T14:58:14.401Z,23.70
2022-09-21T15:00:48.848Z,23.60
2022-09-21T15:03:40.168Z,23.50
2022-09-21T15:06:39.838Z,23.40
2022-09-21T15:10:09.999Z,23.30
2022-09-21T15:12:47.689Z,23.10
2022-09-21T15:15:27.195Z,23.10
2022-09-21T15:18:02.669Z,23.10
2022-09-21T15:20:32.189Z,23.10
2022-09-21T15:23:00.530Z,23.10
2022-09-21T15:25:32.181Z,23.10
2022-09-21T15:28:00.487Z,23.10
2022-09-21T15:30:45.923Z,23.10
2022-09-21T15:33:14.164Z,22.90
2022-09-21T15:35:46.863Z,22.90
2022-09-21T15:38:36.726Z,22.80
2022-09-21T15:41:11.479Z,22.60
2022-09-21T15:43:40.839Z,22.40
2022-09-21T15:46:12.705Z,22.20
2022-09-21T15:48:47.229Z,22.00
2022-09-21T15:51:29.856Z,21.80
2022-09-21T15:54:23.924Z,21.60
2022-09-21T15:56:51.258Z,21.40
2022-09-21T15:59:21.155Z,21.20
2022-09-21T16:01:52.931Z,21.10
2022-09-21T16:04:25.211Z,21.00
2022-09-21T16:07:24.603Z,21.00
2022-09-21T16:09:55.124Z,20.90
2022-09-21T16:12:43.908Z,20.70
2022-09-21T16:15:13.846Z,20.60
2022-09-21T16:17:56.143Z,20.40
2022-09-21T16:20:36.926Z,20.30
2022-09-21T16:23:13.257Z,20.20
2022-09-21T16:25:40.902Z,20.20
2022-09-21T16:28:29.580Z,20.20
2022-09-21T16:30:59.045Z,20.20
2022-09-21T16:33:38.314Z,20.10
2022-09-21T16:36:27.563Z,20.00
2022-09-21T16:38:56.646Z,19.90
2022-09-21T16:41:35.227Z,19.80
2022-09-21T16:44:05.448Z,19.70
2022-09-21T16:46:36.270Z,19.50
2022-09-21T16:49:15.370Z,19.30
2022-09-21T16:51:47.218Z,19.10
2022-09-21T16:54:18.952Z,19.00
2022-09-21T16:56:46.562Z,18.90
2022-09-21T16:59:23.212Z,18.80
2022-09-21T17:01:57.797Z,18.70
2022-09-21T17:04:33.181Z,18.70
2022-09-21T17:07:00.890Z,18.70
2022-09-21T17:09:30.056Z,18.60
2022-09-21T17:12:01.427Z,18.50
2022-09-21T17:14:36.672Z,18.50
2022-09-21T17:17:36.167Z,18.40
2022-09-21T17:20:18.931Z,18.40
2022-09-21T17:22:49.166Z,18.30
2022-09-21T17:25:16.067Z,18.30
2022-09-21T17:27:45.206Z,18.30
2022-09-21T17:30:14.220Z,18.20
2022-09-21T17:32:42.710Z,18.20
2022-09-21T17:35:32.982Z,18.20
2022-09-21T17:38:00.658Z,18.10
2022-09-21T17:40:28.053Z,18.00
2022-09-21T17:43:06.496Z,18.00
2022-09-21T17:45:43.269Z,17.90
2022-09-21T17:48:19.786Z,17.80
2022-09-21T17:50:47.171Z,17.70
2022-09-21T17:53:32.775Z,17.70
2022-09-21T17:56:15.183Z,17.60
2022-09-21T17:58:57.120Z,17.60
2022-09-21T18:01:29.890Z,17.50
2022-09-21T18:03:57.665Z,17.50
2022-09-21T18:06:26.076Z,17.40
2022-09-21T18:08:54.175Z,17.40
2022-09-21T18:11:37.215Z,17.40
2022-09-21T18:14:34.972Z,17.30
2022-09-21T18:17:25.248Z,17.30
2022-09-21T18:20:10.931Z,17.30
2022-09-21T18:22:58.802Z,17.30
2022-09-21T18:25:35.665Z,17.20
2022-09-21T18:28:31.780Z,17.20
2022-09-21T18:31:36.656Z,17.20
2022-09-21T18:34:14.074Z,17.20
2022-09-21T18:37:04.160Z,17.20
2022-09-21T18:40:03.354Z,17.10
2022-09-21T18:42:57.798Z,17.10
2022-09-21T18:45:33.033Z,17.10
2022-09-21T18:48:17.448Z,17.10
2022-09-21T18:51:05.072Z,17.10
2022-09-21T18:53:58.508Z,17.00
2022-09-21T18:56:35.664Z,17.00
2022-09-21T18:59:03.462Z,17.00
2022-09-21T19:01:33.790Z,17.00
2022-09-21T19:04:01.546Z,16.90
2022-09-21T19:06:54.961Z,16.90
2022-09-21T19:09:52.183Z,16.90
2022-09-21T19:12:55.194Z,16.80
2022-09-21T19:15:58.577Z,16.70
2022-09-21T19:18:36.258Z,16.70
2022-09-21T19:21:26.792Z,16.60
2022-09-21T19:24:14.810Z,16.50
2022-09-21T19:27:02.524Z,16.50
2022-09-21T19:29:45.029Z,16.40
2022-09-21T19:32:36.471Z,16.40
2022-09-21T19:35:17.464Z,16.30
2022-09-21T19:37:44.817Z,16.30
2022-09-21T19:40:12.045Z,16.30
2022-09-21T19:43:34.188Z,16.30
2022-09-21T19:46:20.545Z,16.20
2022-09-21T19:48:50.950Z,16.20
2022-09-21T19:51:24.238Z,16.20
2022-09-21T19:54:15.261Z,16.20
2022-09-21T19:57:09.170Z,16.20
2022-09-21T19:59:45.490Z,16.20
2022-09-21T20:02:12.372Z,16.20
2022-09-21T20:04:42.662Z,16.20
2022-09-21T20:07:51.698Z,16.20
2022-09-21T20:10:30.960Z,16.10
2022-09-21T20:13:20.963Z,16.10
2022-09-21T20:16:08.792Z,16.10
2022-09-21T20:18:38.911Z,16.00
2022-09-21T20:21:13.537Z,16.00
2022-09-21T20:23:41.093Z,16.10
2022-09-21T20:26:23.958Z,16.00
2022-09-21T20:28:55.014Z,16.00
2022-09-21T20:31:24.340Z,16.00
2022-09-21T20:33:51.311Z,15.90
2022-09-21T20:36:18.350Z,15.90
2022-09-21T20:38:45.308Z,15.80
2022-09-21T20:41:13.454Z,15.80
2022-09-21T20:43:40.602Z,15.80
2022-09-21T20:46:09.712Z,15.70
2022-09-21T20:48:38.471Z,15.70
2022-09-21T20:51:06.329Z,15.70
2022-09-21T20:53:36.246Z,15.60
2022-09-21T20:56:03.773Z,15.60
2022-09-21T20:58:31.201Z,15.50
2022-09-21T21:01:08.832Z,15.50
2022-09-21T21:03:35.886Z,15.50
2022-09-21T21:06:18.843Z,15.50
2022-09-21T21:08:46.319Z,15.40
2022-09-21T21:11:14.483Z,15.40
2022-09-21T21:13:41.644Z,15.40
2022-09-21T21:16:12.048Z,15.30
2022-09-21T21:18:42.820Z,15.30
2022-09-21T21:21:09.841Z,15.30
2022-09-21T21:23:55.130Z,15.20
2022-09-21T21:26:29.483Z,15.20
2022-09-21T21:29:09.103Z,15.20
2022-09-21T21:31:36.186Z,15.20
2022-09-21T21:34:03.170Z,15.20
2022-09-21T21:36:30.056Z,15.10
2022-09-21T21:38:56.983Z,15.10
2022-09-21T21:41:23.846Z,15.10
2022-09-21T21:43:51.766Z,15.10
2022-09-21T21:46:18.731Z,15.00
2022-09-21T21:48:47.050Z,15.00
2022-09-21T21:51:13.894Z,15.00
2022-09-21T21:53:40.962Z,15.00
2022-09-21T21:56:16.350Z,14.90
2022-09-21T21:58:43.920Z,14.90
2022-09-21T22:01:15.015Z,14.90
2022-09-21T22:03:42.283Z,14.90
2022-09-21T22:06:10.572Z,14.80
2022-09-21T22:08:38.987Z,14.80
2022-09-21T22:11:07.875Z,14.80
2022-09-21T22:13:36.991Z,14.80
2022-09-21T22:16:24.280Z,14.70
2022-09-21T22:18:52.358Z,14.70
2022-09-21T22:21:26.268Z,14.70
2022-09-21T22:24:01.256Z,14.70
2022-09-21T22:26:29.903Z,14.60
2022-09-21T22:28:59.309Z,14.60
2022-09-21T22:31:29.198Z,14.60
2022-09-21T22:33:58.602Z,14.50
2022-09-21T22:36:28.156Z,14.50
2022-09-21T22:38:55.661Z,14.40
2022-09-21T22:41:28.971Z,14.40
2022-09-21T22:43:57.641Z,14.40
2022-09-21T22:46:27.209Z,14.30
2022-09-21T22:48:54.166Z,14.30
2022-09-21T22:51:22.219Z,14.20
2022-09-21T22:53:50.750Z,14.20
2022-09-21T22:56:20.099Z,14.20
2022-09-21T22:58:49.754Z,14.20
2022-09-21T23:01:29.011Z,14.20
2022-09-21T23:03:58.775Z,14.10
2022-09-21T23:06:32.918Z,14.10
2022-09-21T23:09:02.214Z,14.10
2022-09-21T23:11:39.167Z,14.10
2022-09-21T23:14:06.379Z,14.10
2022-09-21T23:16:33.940Z,14.00
2022-09-21T23:19:01.026Z,14.00
2022-09-21T23:21:29.640Z,14.00
2022-09-21T23:23:59.929Z,13.90
2022-09-21T23:26:28.651Z,13.90
2022-09-21T23:29:00.709Z,13.80
2022-09-21T23:31:29.182Z,13.80
2022-09-21T23:34:04.137Z,13.80
2022-09-21T23:36:32.086Z,13.80
2022-09-21T23:38:59.020Z,13.70
2022-09-21T23:41:32.652Z,13.60
2022-09-21T23:43:59.769Z,13.60
2022-09-21T23:46:29.861Z,13.50
2022-09-21T23:49:00.754Z,13.50
2022-09-21T23:51:29.977Z,13.40
2022-09-21T23:53:58.059Z,13.40
2022-09-21T23:56:25.802Z,13.30
2022-09-21T23:58:53.265Z,13.30
